Time;durP1;ratioP1;P1;durP2;ratioP2;P2;SDS_P1;SDS_P2;PMS_P1;PMS_P2;Temp;Humidity;BMP_temperature;BMP_pressure;BME280_temperature;BME280_humidity;BME280_pressure;Samples;Min_cycle;Max_cycle;Signal;HPM_P1;HPM_P2
2021/11/05 00:01:21;;;;;;;18.17;7.72;;;;;;;11.67;100.00;95210.41;4743052;29;20065;-71
2021/11/05 00:03:46;;;;;;;16.63;9.10;;;;;;;11.59;100.00;95208.13;4865675;29;20049;-70
2021/11/05 00:06:14;;;;;;;17.38;9.75;;;;;;;11.55;100.00;95207.00;4966570;28;20106;-71
2021/11/05 00:08:41;;;;;;;20.63;8.48;;;;;;;11.55;100.00;95195.78;5043556;28;20053;-70
2021/11/05 00:11:08;;;;;;;17.35;8.82;;;;;;;11.58;100.00;95200.56;5042519;28;20044;-71
2021/11/05 00:13:34;;;;;;;19.60;7.43;;;;;;;11.51;100.00;95197.28;5042290;28;20090;-70
2021/11/05 00:16:01;;;;;;;19.20;8.85;;;;;;;11.50;100.00;95191.25;5027389;28;20115;-71
2021/11/05 00:18:28;;;;;;;14.55;8.35;;;;;;;11.52;100.00;95196.22;5044187;28;20049;-71
2021/11/05 00:20:55;;;;;;;17.75;9.15;;;;;;;11.54;100.00;95200.22;5026516;28;20049;-71
2021/11/05 00:23:22;;;;;;;16.10;7.65;;;;;;;11.55;100.00;95212.22;5042714;28;20037;-70
2021/11/05 00:25:49;;;;;;;16.17;7.75;;;;;;;11.58;100.00;95206.56;5044698;28;20041;-71
2021/11/05 00:28:15;;;;;;;14.23;7.85;;;;;;;11.67;100.00;95205.19;5043403;28;20548;-71
2021/11/05 00:30:43;;;;;;;16.83;8.20;;;;;;;11.56;100.00;95208.59;5044799;28;20414;-71
2021/11/05 00:33:10;;;;;;;13.60;7.47;;;;;;;11.56;100.00;95208.59;5044000;28;20513;-71
2021/11/05 00:35:36;;;;;;;17.20;8.60;;;;;;;11.45;100.00;95206.78;5044603;28;20044;-71
2021/11/05 00:38:03;;;;;;;16.88;7.22;;;;;;;11.28;100.00;95197.00;5044850;28;20069;-71
2021/11/05 00:40:31;;;;;;;16.70;7.72;;;;;;;11.24;100.00;95180.25;5044073;28;20457;-71
2021/11/05 00:42:58;;;;;;;17.58;7.18;;;;;;;11.38;100.00;95191.25;5044712;28;20462;-71
2021/11/05 00:45:25;;;;;;;15.73;7.57;;;;;;;11.46;100.00;95188.28;5043489;28;20056;-71
2021/11/05 00:47:52;;;;;;;22.58;8.95;;;;;;;11.44;100.00;95184.34;5043637;28;20048;-71
2021/11/05 00:50:19;;;;;;;18.73;8.13;;;;;;;11.50;100.00;95199.06;5041962;28;22040;-71
2021/11/05 00:52:46;;;;;;;17.83;8.35;;;;;;;11.43;100.00;95182.72;5041892;28;20040;-71
2021/11/05 00:55:12;;;;;;;17.33;8.85;;;;;;;11.45;100.00;95186.72;5041203;28;20114;-70
2021/11/05 00:57:39;;;;;;;18.08;8.93;;;;;;;11.56;100.00;95192.94;5043557;28;20095;-70
2021/11/05 01:00:13;;;;;;;18.10;8.68;;;;;;;11.58;100.00;95190.91;5043583;28;20120;-70
2021/11/05 01:02:41;;;;;;;19.73;8.40;;;;;;;11.56;100.00;95192.94;5043289;28;20060;-70
2021/11/05 01:05:10;;;;;;;19.85;9.25;;;;;;;11.56;100.00;95186.91;5042610;28;20048;-71
2021/11/05 01:07:37;;;;;;;18.58;8.15;;;;;;;11.53;100.00;95182.97;5042627;28;20059;-71
2021/11/05 01:10:05;;;;;;;17.75;9.15;;;;;;;11.42;100.00;95175.94;5042567;28;20044;-71
2021/11/05 01:12:32;;;;;;;20.70;8.48;;;;;;;11.32;100.00;95167.88;5042301;28;20037;-71
2021/11/05 01:14:59;;;;;;;20.90;9.23;;;;;;;11.39;100.00;95179.78;5042984;28;20533;-71
2021/11/05 01:17:26;;;;;;;15.63;7.80;;;;;;;11.29;100.00;95167.31;5044132;28;20041;-71
2021/11/05 01:19:53;;;;;;;17.25;8.48;;;;;;;11.36;100.00;95171.63;5042058;28;20045;-71
2021/11/05 01:22:20;;;;;;;15.90;7.50;;;;;;;11.33;100.00;95177.31;5043854;28;20418;-71
2021/11/05 01:24:47;;;;;;;16.58;8.05;;;;;;;11.35;100.00;95175.25;5025074;28;20056;-71
2021/11/05 01:27:13;;;;;;;17.52;7.88;;;;;;;11.26;100.00;95159.94;5042215;28;20056;-71
2021/11/05 01:29:41;;;;;;;17.30;8.95;;;;;;;11.28;100.00;95152.69;5041190;28;20049;-71
2021/11/05 01:32:08;;;;;;;19.73;8.80;;;;;;;11.48;100.00;95180.25;5042218;28;20044;-71
2021/11/05 01:34:35;;;;;;;20.48;8.65;;;;;;;11.44;100.00;95168.69;5043233;28;20037;-71
2021/11/05 01:37:02;;;;;;;15.50;7.32;;;;;;;11.37;100.00;95173.22;5043384;28;20707;-71
2021/11/05 01:39:29;;;;;;;17.58;7.53;;;;;;;11.23;100.00;95168.22;5025978;28;20044;-71
2021/11/05 01:41:56;;;;;;;18.45;6.68;;;;;;;11.14;100.00;95169.56;5040886;28;20044;-71
2021/11/05 01:44:25;;;;;;;12.35;6.70;;;;;;;11.14;100.00;95164.34;5041075;28;20056;-71
2021/11/05 01:46:52;;;;;;;14.25;7.75;;;;;;;10.92;100.00;95145.09;5043871;28;20047;-71
2021/11/05 01:49:19;;;;;;;12.90;8.10;;;;;;;10.79;100.00;95157.28;5041683;28;20040;-71
2021/11/05 01:51:46;;;;;;;14.85;7.70;;;;;;;10.82;100.00;95156.03;5041098;28;22149;-71
2021/11/05 01:54:13;;;;;;;15.52;7.63;;;;;;;10.81;100.00;95165.69;5039014;28;20043;-71
2021/11/05 01:56:42;;;;;;;14.20;7.15;;;;;;;10.69;100.00;95151.84;5040679;28;20510;-71
2021/11/05 01:59:30;;;;;;;12.75;6.28;;;;;;;10.76;100.00;95162.16;5041169;28;20502;-71
2021/11/05 02:01:58;;;;;;;13.27;7.20;;;;;;;10.62;100.00;95135.50;5041811;28;20045;-71
2021/11/05 02:04:26;;;;;;;11.82;6.13;;;;;;;10.58;100.00;95160.41;5040933;28;20045;-72
2021/11/05 02:06:55;;;;;;;12.73;5.78;;;;;;;10.43;100.00;95146.00;5025107;28;20052;-71
2021/11/05 02:09:24;;;;;;;11.25;5.70;;;;;;;10.42;100.00;95151.41;5040398;28;20090;-71
2021/11/05 02:11:55;;;;;;;12.60;6.10;;;;;;;10.43;100.00;95140.00;5041512;28;20052;-71
2021/11/05 02:14:24;;;;;;;15.45;6.28;;;;;;;10.80;100.00;95148.44;5040945;28;20470;-70
2021/11/05 02:16:54;;;;;;;13.95;6.38;;;;;;;11.05;100.00;95139.66;5042845;28;20041;-70
2021/11/05 02:19:24;;;;;;;15.43;7.70;;;;;;;11.22;100.00;95151.00;5043122;28;20044;-70
2021/11/05 02:21:53;;;;;;;12.13;6.53;;;;;;;11.29;100.00;95141.25;5042030;28;20037;-71
2021/11/05 02:24:21;;;;;;;14.50;6.70;;;;;;;11.39;100.00;95145.09;5043353;28;20457;-71
2021/11/05 02:26:50;;;;;;;12.70;7.07;;;;;;;11.35;100.00;95141.38;5042031;28;20049;-71
2021/11/05 02:29:18;;;;;;;13.18;7.50;;;;;;;11.33;100.00;95140.81;5041372;28;20099;-71
2021/11/05 02:31:45;;;;;;;13.20;6.78;;;;;;;11.30;100.00;95147.25;5040978;28;20044;-71
2021/11/05 02:34:12;;;;;;;16.90;8.20;;;;;;;11.29;100.00;95148.28;5042117;28;20095;-71
2021/11/05 02:36:40;;;;;;;13.82;7.47;;;;;;;11.21;100.00;95138.97;5044809;28;20044;-71
2021/11/05 02:39:08;;;;;;;13.07;6.78;;;;;;;11.22;100.00;95134.56;5046389;28;20463;-71
2021/11/05 02:41:37;;;;;;;11.25;7.22;;;;;;;11.21;100.00;95143.41;5046489;28;20100;-71
2021/11/05 02:44:04;;;;;;;18.30;7.53;;;;;;;11.21;100.00;95144.19;5043684;28;20098;-71
2021/11/05 02:46:42;;;;;;;18.08;7.57;;;;;;;11.30;100.00;95144.63;5045769;28;20048;-71
2021/11/05 02:49:14;;;;;;;15.70;7.07;;;;;;;11.26;100.00;95140.91;5045413;28;20068;-71
2021/11/05 02:51:45;;;;;;;16.50;7.47;;;;;;;11.34;100.00;95144.97;5027342;28;20115;-71
2021/11/05 02:54:13;;;;;;;19.30;7.40;;;;;;;11.32;100.00;95139.22;5043771;28;20045;-72
2021/11/05 02:56:41;;;;;;;14.07;7.07;;;;;;;11.32;100.00;95152.25;5027891;28;20045;-70
2021/11/05 02:59:09;;;;;;;10.07;6.25;;;;;;;11.27;100.00;95153.72;5027651;28;20049;-71
2021/11/05 03:01:36;;;;;;;23.40;8.10;;;;;;;11.24;100.00;95158.59;5044365;28;20045;-71
2021/11/05 03:04:07;;;;;;;11.73;6.88;;;;;;;10.96;100.00;95130.56;5044929;28;20053;-71
2021/11/05 03:06:38;;;;;;;14.18;7.63;;;;;;;11.04;100.00;95143.28;5045216;28;20037;-71
2021/11/05 03:09:17;;;;;;;10.75;5.68;;;;;;;10.95;100.00;95149.81;5043738;28;20040;-73
2021/11/05 03:11:46;;;;;;;12.88;7.45;;;;;;;10.93;100.00;95151.88;5044640;28;20049;-72
2021/11/05 03:14:13;;;;;;;15.05;6.80;;;;;;;11.01;100.00;95154.16;5046153;28;20044;-72
2021/11/05 03:16:41;;;;;;;19.33;7.70;;;;;;;11.06;100.00;95146.47;5045386;28;20072;-72
2021/11/05 03:19:08;;;;;;;16.85;8.05;;;;;;;11.10;100.00;95142.38;5046612;28;20119;-72
2021/11/05 03:21:36;;;;;;;12.63;7.65;;;;;;;11.14;100.00;95148.72;5043316;28;20037;-72
2021/11/05 03:24:03;;;;;;;16.35;7.90;;;;;;;11.13;100.00;95141.94;5046302;28;20048;-72
2021/11/05 03:26:34;;;;;;;13.00;6.82;;;;;;;11.07;100.00;95142.81;5044566;28;20041;-72
2021/11/05 03:29:02;;;;;;;14.73;7.60;;;;;;;10.98;100.00;95144.97;5027371;28;20169;-72
2021/11/05 03:31:29;;;;;;;11.40;6.63;;;;;;;10.75;100.00;95124.91;5046848;28;20106;-71
2021/11/05 03:33:56;;;;;;;20.52;8.75;;;;;;;10.81;100.00;95139.63;5045441;28;20037;-71
2021/11/05 03:36:24;;;;;;;12.40;6.15;;;;;;;10.89;100.00;95126.28;5046278;28;20044;-71
2021/11/05 03:38:51;;;;;;;12.85;6.05;;;;;;;11.01;100.00;95141.13;5026017;28;20426;-73
2021/11/05 03:41:18;;;;;;;13.07;6.22;;;;;;;10.95;100.00;95139.41;5043593;28;20049;-72
2021/11/05 03:43:45;;;;;;;14.38;7.18;;;;;;;10.98;100.00;95146.78;5043185;28;20441;-73
2021/11/05 03:46:13;;;;;;;12.07;6.82;;;;;;;10.93;100.00;95146.66;5045568;28;20053;-72
2021/11/05 03:48:40;;;;;;;15.43;7.15;;;;;;;10.92;100.00;95134.66;5045408;28;20490;-72
2021/11/05 03:51:08;;;;;;;14.50;7.75;;;;;;;11.06;100.00;95136.03;5044608;28;20106;-72
2021/11/05 03:53:36;;;;;;;19.67;8.82;;;;;;;11.06;100.00;95136.03;5042575;28;20127;-72
2021/11/05 03:56:04;;;;;;;16.48;7.78;;;;;;;11.08;100.00;95128.78;5042285;28;20049;-72
2021/11/05 03:58:30;;;;;;;13.90;6.90;;;;;;;11.16;100.00;95141.47;5044535;28;20476;-71
2021/11/05 04:00:58;;;;;;;14.77;7.72;;;;;;;11.24;100.00;95138.53;5041709;28;20048;-72
2021/11/05 04:03:25;;;;;;;13.77;7.43;;;;;;;11.24;100.00;95133.31;5045057;28;20480;-72
2021/11/05 04:05:51;;;;;;;17.23;7.65;;;;;;;11.24;100.00;95138.53;5043043;28;20041;-72
2021/11/05 04:08:18;;;;;;;19.77;8.40;;;;;;;11.27;100.00;95132.06;5027687;28;20044;-71
2021/11/05 04:10:46;;;;;;;19.08;7.95;;;;;;;11.27;100.00;95117.22;5044421;28;20048;-71
2021/11/05 04:13:14;;;;;;;12.98;7.53;;;;;;;11.35;100.00;95129.13;5042966;28;20510;-71
2021/11/05 04:15:41;;;;;;;14.20;7.75;;;;;;;11.41;100.00;95140.44;5044867;28;21704;-72
2021/11/05 04:18:08;;;;;;;10.75;6.82;;;;;;;11.33;100.00;95135.59;5044057;28;20053;-72
2021/11/05 04:20:35;;;;;;;13.98;6.90;;;;;;;11.25;100.00;95147.13;5043341;28;20041;-72
2021/11/05 04:23:06;;;;;;;13.18;6.60;;;;;;;11.27;100.00;95152.91;5044892;28;20033;-72
2021/11/05 04:25:34;;;;;;;14.32;6.18;;;;;;;11.15;100.00;95145.09;5045968;28;20036;-71
2021/11/05 04:28:06;;;;;;;14.82;6.35;;;;;;;11.07;100.00;95148.03;5042216;28;20116;-72
2021/11/05 04:30:33;;;;;;;14.57;7.13;;;;;;;11.00;100.00;95136.91;5043865;28;20045;-72
2021/11/05 04:33:00;;;;;;;12.00;7.25;;;;;;;10.90;100.00;95153.91;5044957;28;20040;-72
2021/11/05 04:35:27;;;;;;;15.55;7.78;;;;;;;10.88;100.00;95155.94;5044476;28;20044;-72
2021/11/05 04:37:54;;;;;;;18.17;7.93;;;;;;;10.90;100.00;95148.69;5045437;28;20036;-72
2021/11/05 04:40:20;;;;;;;18.25;7.53;;;;;;;10.99;100.00;95146.56;5044154;28;20049;-72
2021/11/05 04:42:48;;;;;;;15.07;6.97;;;;;;;10.97;100.00;95153.03;5041854;28;20049;-72
2021/11/05 04:45:15;;;;;;;16.27;6.60;;;;;;;10.89;100.00;95151.53;5043064;28;20041;-72
2021/11/05 04:47:41;;;;;;;14.85;6.63;;;;;;;11.02;100.00;95163.56;5042740;28;20495;-72
2021/11/05 04:50:09;;;;;;;14.23;7.30;;;;;;;10.92;100.00;95145.09;5043661;28;20563;-72
2021/11/05 04:52:37;;;;;;;11.95;7.00;;;;;;;10.99;100.00;95171.84;5044158;28;20901;-72
2021/11/05 04:55:05;;;;;;;14.02;7.07;;;;;;;10.99;100.00;95162.19;5040561;28;20040;-72
2021/11/05 04:57:33;;;;;;;22.13;6.95;;;;;;;10.84;100.00;95159.22;5041812;28;20041;-72
2021/11/05 05:00:00;;;;;;;16.88;7.70;;;;;;;10.72;100.00;95187.88;5041940;28;20101;-72
2021/11/05 05:02:27;;;;;;;15.98;6.70;;;;;;;10.88;100.00;95182.00;5023233;28;20540;-72
2021/11/05 05:04:54;;;;;;;10.07;6.65;;;;;;;10.93;100.00;95157.09;5020600;28;20108;-72
2021/11/05 05:07:20;;;;;;;20.27;8.23;;;;;;;11.13;100.00;95177.63;5022405;28;20177;-72
2021/11/05 05:09:47;;;;;;;12.50;6.25;;;;;;;11.16;100.00;95188.38;5022563;28;20034;-72
2021/11/05 05:12:14;;;;;;;10.77;6.00;;;;;;;11.15;100.00;95176.38;5022271;28;20466;-73
2021/11/05 05:14:41;;;;;;;11.27;6.32;;;;;;;11.20;100.00;95188.72;5024713;28;20470;-72
2021/11/05 05:17:08;;;;;;;11.38;6.38;;;;;;;11.33;100.00;95183.31;5022123;28;20132;-72
2021/11/05 05:19:35;;;;;;;12.02;6.30;;;;;;;11.31;100.00;95184.53;5024551;28;20045;-72
2021/11/05 05:22:03;;;;;;;14.68;6.18;;;;;;;11.35;100.00;95189.09;5023460;28;20041;-72
2021/11/05 05:24:29;;;;;;;10.45;5.70;;;;;;;11.36;100.00;95176.84;5022772;28;20530;-72
2021/11/05 05:26:56;;;;;;;13.93;6.43;;;;;;;11.38;100.00;95185.22;5024462;28;20033;-72
2021/11/05 05:29:23;;;;;;;12.45;6.85;;;;;;;11.45;100.00;95201.56;5021145;28;20554;-72
2021/11/05 05:31:50;;;;;;;11.25;6.30;;;;;;;11.48;100.00;95211.53;5024150;28;20052;-72
2021/11/05 05:34:17;;;;;;;13.82;6.38;;;;;;;11.53;100.00;95201.22;5022215;28;20036;-72
2021/11/05 05:36:44;;;;;;;8.95;5.60;;;;;;;11.46;100.00;95203.16;5022619;28;20045;-72
2021/11/05 05:39:11;;;;;;;10.40;6.10;;;;;;;11.49;100.00;95202.72;5021692;28;20089;-72
2021/11/05 05:41:38;;;;;;;11.80;6.22;;;;;;;11.62;100.00;95228.56;5021796;28;20045;-73
2021/11/05 05:44:05;;;;;;;10.60;5.47;;;;;;;11.58;100.00;95217.00;5021569;28;20029;-72
2021/11/05 05:46:33;;;;;;;16.85;6.95;;;;;;;11.61;100.00;95211.34;5020453;28;20045;-72
2021/11/05 05:49:00;;;;;;;16.73;10.27;;;;;;;11.75;100.00;95237.19;5020997;28;20045;-72
2021/11/05 05:51:32;;;;;;;23.25;9.30;;;;;;;11.77;100.00;95242.97;5021773;28;20045;-73
2021/11/05 05:54:00;;;;;;;18.50;10.50;;;;;;;11.81;100.00;95234.47;5018469;28;20049;-72
2021/11/05 05:56:27;;;;;;;18.60;9.57;;;;;;;11.74;100.00;95230.34;5022779;28;20052;-72
2021/11/05 05:58:54;;;;;;;12.07;6.45;;;;;;;11.81;100.00;95226.63;5022497;28;20045;-72
2021/11/05 06:01:21;;;;;;;13.18;7.78;;;;;;;11.83;100.00;95240.25;5018361;28;20122;-71
2021/11/05 06:03:48;;;;;;;16.15;8.63;;;;;;;11.85;100.00;95221.75;5028456;28;20407;-71
2021/11/05 06:06:15;;;;;;;17.35;8.75;;;;;;;11.87;100.00;95222.31;5040334;28;20568;-71
2021/11/05 06:08:42;;;;;;;18.58;9.70;;;;;;;11.86;100.00;95203.22;5039930;28;20044;-72
2021/11/05 06:11:09;;;;;;;15.23;8.40;;;;;;;11.98;100.00;95224.13;5041043;28;20037;-70
2021/11/05 06:13:36;;;;;;;13.45;7.32;;;;;;;11.98;100.00;95218.91;5044912;28;20060;-70
2021/11/05 06:16:03;;;;;;;14.63;7.72;;;;;;;12.09;100.00;95221.75;5046622;28;20044;-70
2021/11/05 06:18:30;;;;;;;14.50;8.95;;;;;;;12.17;100.00;95229.19;5046763;28;20060;-71
2021/11/05 06:20:57;;;;;;;16.13;7.53;;;;;;;12.32;100.00;95236.56;5026757;28;20036;-70
2021/11/05 06:23:24;;;;;;;10.23;5.82;;;;;;;12.46;100.00;95237.06;5044570;28;20386;-70
2021/11/05 06:25:51;;;;;;;12.38;7.88;;;;;;;12.51;100.00;95229.34;5043115;28;20032;-72
2021/11/05 06:28:18;;;;;;;15.95;8.57;;;;;;;12.70;100.00;95237.78;5044737;28;20502;-72
2021/11/05 06:30:44;;;;;;;15.38;8.20;;;;;;;12.85;100.00;95239.88;5042108;28;20102;-72
2021/11/05 06:33:11;;;;;;;20.33;10.30;;;;;;;12.92;100.00;95237.91;5046766;28;20037;-72
2021/11/05 06:35:38;;;;;;;15.82;7.97;;;;;;;12.99;100.00;95252.41;5045022;28;20045;-72
2021/11/05 06:38:05;;;;;;;13.10;7.55;;;;;;;12.89;100.00;95256.66;5046855;28;20060;-71
2021/11/05 06:40:32;;;;;;;13.93;8.23;;;;;;;12.85;100.00;95252.94;5044613;28;20049;-72
2021/11/05 06:42:58;;;;;;;20.63;8.68;;;;;;;12.92;100.00;95257.00;5044631;28;20406;-71
2021/11/05 06:45:28;;;;;;;16.88;9.10;;;;;;;12.98;100.00;95255.25;5044485;28;20045;-72
2021/11/05 06:47:55;;;;;;;18.65;7.88;;;;;;;13.04;100.00;95256.94;5045176;28;20041;-71
2021/11/05 06:50:22;;;;;;;13.32;7.05;;;;;;;13.07;100.00;95225.09;5045739;28;20033;-72
2021/11/05 06:52:49;;;;;;;13.23;6.50;;;;;;;13.30;100.00;95239.84;5045804;28;20048;-71
2021/11/05 06:55:16;;;;;;;17.30;6.35;;;;;;;13.62;100.00;95254.22;5045256;28;20036;-71
2021/11/05 06:57:44;;;;;;;11.80;5.28;;;;;;;13.76;100.00;95239.78;5045666;28;20426;-72
2021/11/05 07:00:13;;;;;;;14.45;5.78;;;;;;;14.01;100.00;95233.28;5045756;28;20051;-72
2021/11/05 07:02:41;;;;;;;10.07;6.40;;;;;;;14.22;100.00;95237.75;5045377;28;20052;-72
2021/11/05 07:05:10;;;;;;;28.35;11.65;;;;;;;14.44;99.77;95243.00;5046432;28;20045;-72
2021/11/05 07:07:37;;;;;;;53.60;17.83;;;;;;;14.54;99.51;95234.47;5026556;28;20053;-71
2021/11/05 07:10:06;;;;;;;81.53;28.05;;;;;;;14.68;98.67;95240.94;5045849;28;20049;-71
2021/11/05 07:12:32;;;;;;;35.53;12.98;;;;;;;14.82;97.68;95230.84;5044439;28;20044;-71
2021/11/05 07:15:00;;;;;;;62.50;20.70;;;;;;;14.99;96.62;95238.63;5046370;28;20045;-71
2021/11/05 07:17:27;;;;;;;32.00;11.82;;;;;;;15.17;94.31;95231.44;5046725;28;20045;-71
2021/11/05 07:19:54;;;;;;;11.18;6.07;;;;;;;15.39;93.38;95224.25;5045766;28;20049;-71
2021/11/05 07:22:20;;;;;;;47.97;16.63;;;;;;;15.61;91.75;95231.22;5045886;28;20033;-71
2021/11/05 07:24:48;;;;;;;43.42;15.07;;;;;;;15.69;91.22;95228.13;5045316;28;20041;-72
2021/11/05 07:27:15;;;;;;;37.65;14.25;;;;;;;15.85;90.10;95231.69;5044939;28;20044;-71
2021/11/05 07:29:42;;;;;;;18.80;8.73;;;;;;;15.89;90.02;95237.22;5042775;28;20050;-71
2021/11/05 07:32:09;;;;;;;24.05;10.25;;;;;;;15.99;88.86;95242.50;5028326;28;20044;-71
2021/11/05 07:34:38;;;;;;;8.13;5.22;;;;;;;16.09;87.51;95237.31;5045873;28;20041;-71
2021/11/05 07:37:18;;;;;;;24.40;10.93;;;;;;;16.08;87.17;95235.75;5045366;28;20457;-71
2021/11/05 07:39:46;;;;;;;22.80;9.45;;;;;;;16.22;85.70;95236.88;5045397;28;20041;-72
2021/11/05 07:42:13;;;;;;;15.93;6.80;;;;;;;16.28;84.23;95223.72;5043193;28;20396;-71
2021/11/05 07:44:41;;;;;;;17.45;8.00;;;;;;;16.24;84.87;95219.00;5046363;28;20036;-71
2021/11/05 07:47:08;;;;;;;14.20;6.95;;;;;;;16.29;84.87;95230.59;5043771;28;20037;-71
2021/11/05 07:49:35;;;;;;;21.05;8.93;;;;;;;16.14;85.69;95213.69;5045027;28;20037;-71
2021/11/05 07:52:04;;;;;;;14.98;6.97;;;;;;;16.31;86.65;95223.22;5043603;28;20510;-71
2021/11/05 07:54:31;;;;;;;14.50;6.72;;;;;;;16.48;83.34;95221.19;5043918;28;20052;-71
2021/11/05 07:56:57;;;;;;;16.45;6.35;;;;;;;16.75;82.55;95222.84;5040506;28;20049;-72
2021/11/05 07:59:24;;;;;;;19.42;8.07;;;;;;;16.88;84.36;95217.09;5024563;28;20048;-70
2021/11/05 08:01:51;;;;;;;20.00;8.70;;;;;;;17.02;83.76;95232.41;5042902;28;20067;-71
2021/11/05 08:04:18;;;;;;;16.90;8.15;;;;;;;17.03;84.16;95224.22;5041862;28;20124;-70
2021/11/05 08:06:45;;;;;;;16.73;6.80;;;;;;;17.14;84.91;95223.19;5043058;28;20086;-72
2021/11/05 08:09:12;;;;;;;20.40;7.97;;;;;;;17.31;84.71;95224.78;5043291;28;20053;-72
2021/11/05 08:11:39;;;;;;;15.90;7.10;;;;;;;17.23;83.31;95218.19;5044776;28;20037;-72
2021/11/05 08:14:06;;;;;;;16.70;6.95;;;;;;;17.32;82.81;95206.09;5045454;28;20037;-72
2021/11/05 08:16:33;;;;;;;13.45;6.28;;;;;;;17.42;82.27;95215.81;5027930;28;20406;-71
2021/11/05 08:18:59;;;;;;;13.82;6.45;;;;;;;17.57;81.91;95221.09;5044633;28;20398;-71
2021/11/05 08:21:26;;;;;;;14.57;6.65;;;;;;;17.72;81.32;95225.53;5044246;28;20047;-72
2021/11/05 08:23:54;;;;;;;13.82;5.32;;;;;;;17.88;80.44;95228.16;5042159;28;20624;-72
2021/11/05 08:26:23;;;;;;;12.50;5.80;;;;;;;18.06;79.78;95238.16;5044476;28;20060;-72
2021/11/05 08:28:51;;;;;;;17.38;8.27;;;;;;;18.18;80.92;95237.06;5042474;28;20772;-72
2021/11/05 08:31:18;;;;;;;18.52;7.63;;;;;;;18.28;77.92;95226.47;5024927;28;20049;-72
2021/11/05 08:33:46;;;;;;;11.23;6.60;;;;;;;18.51;77.58;95225.84;5041975;28;20038;-71
2021/11/05 08:36:17;;;;;;;9.52;5.32;;;;;;;18.61;75.77;95219.72;5043600;28;20044;-71
2021/11/05 08:38:45;;;;;;;10.55;5.88;;;;;;;18.81;75.53;95218.84;5044452;28;20041;-71
2021/11/05 08:41:16;;;;;;;11.65;5.22;;;;;;;18.91;74.61;95229.34;5041817;28;20049;-71
2021/11/05 08:43:55;;;;;;;9.38;4.97;;;;;;;19.09;74.41;95220.00;5041408;28;20049;-71
2021/11/05 08:46:28;;;;;;;12.80;5.97;;;;;;;19.42;74.31;95232.69;5043333;28;20033;-71
2021/11/05 08:49:06;;;;;;;9.90;5.53;;;;;;;19.53;73.84;95223.63;5043300;28;20142;-70
2021/11/05 08:51:33;;;;;;;9.93;5.57;;;;;;;19.65;73.39;95210.81;5043912;28;20517;-71
2021/11/05 08:54:00;;;;;;;12.32;6.07;;;;;;;19.94;72.28;95223.25;5043144;28;20037;-70
2021/11/05 08:56:26;;;;;;;6.90;4.30;;;;;;;20.12;72.80;95218.31;5025427;28;20045;-71
2021/11/05 08:58:53;;;;;;;10.13;5.57;;;;;;;20.18;72.00;95223.25;5025884;28;20041;-71
2021/11/05 09:01:20;;;;;;;6.63;3.47;;;;;;;20.16;71.89;95219.31;5042512;28;20049;-71
2021/11/05 09:03:47;;;;;;;13.68;6.13;;;;;;;20.23;71.05;95225.84;5043337;28;20069;-71
2021/11/05 09:06:14;;;;;;;10.05;4.75;;;;;;;20.25;70.34;95233.50;5041388;28;20051;-71
2021/11/05 09:08:43;;;;;;;7.45;4.53;;;;;;;20.08;71.42;95235.81;5042060;28;20037;-71
2021/11/05 09:11:11;;;;;;;8.57;4.75;;;;;;;20.31;70.44;95216.53;5042067;28;20049;-71
2021/11/05 09:13:38;;;;;;;8.43;4.15;;;;;;;20.68;69.30;95230.13;5043015;28;20051;-71
2021/11/05 09:16:05;;;;;;;7.85;4.50;;;;;;;20.74;69.84;95224.47;5043103;28;20044;-70
2021/11/05 09:18:33;;;;;;;10.90;4.72;;;;;;;20.90;68.25;95216.31;5041869;28;20052;-71
2021/11/05 09:21:01;;;;;;;7.93;3.80;;;;;;;21.17;67.30;95218.28;5044026;28;20530;-71
2021/11/05 09:23:28;;;;;;;6.15;3.70;;;;;;;21.45;64.30;95205.97;5042111;28;20041;-71
2021/11/05 09:25:55;;;;;;;9.65;3.85;;;;;;;21.87;64.03;95206.81;5042878;28;20033;-72
2021/11/05 09:28:22;;;;;;;8.57;3.25;;;;;;;22.04;62.68;95210.75;5041056;28;20426;-72
2021/11/05 09:30:49;;;;;;;6.32;3.08;;;;;;;22.41;61.81;95198.41;5042524;28;20109;-72
2021/11/05 09:33:18;;;;;;;8.20;2.50;;;;;;;22.50;59.31;95205.34;5025192;28;20102;-72
2021/11/05 09:35:46;;;;;;;4.63;2.67;;;;;;;22.74;55.29;95195.59;5040997;28;20430;-72
2021/11/05 09:38:14;;;;;;;5.25;2.20;;;;;;;22.90;54.18;95202.13;5041559;28;20102;-72
2021/11/05 09:40:41;;;;;;;4.70;2.20;;;;;;;22.66;55.13;95189.91;5044522;28;20049;-72
2021/11/05 09:43:08;;;;;;;4.35;2.38;;;;;;;22.66;54.93;95195.22;5040112;28;20037;-72
2021/11/05 09:45:36;;;;;;;7.53;2.70;;;;;;;22.92;54.64;95186.66;5040504;28;20038;-72
2021/11/05 09:48:04;;;;;;;5.50;2.42;;;;;;;23.24;54.00;95192.88;5043924;28;20052;-72
2021/11/05 09:50:31;;;;;;;7.40;3.20;;;;;;;23.25;51.76;95199.78;5043034;28;20045;-72
2021/11/05 09:52:58;;;;;;;7.40;3.10;;;;;;;23.20;53.23;95190.03;5043140;28;20040;-72
2021/11/05 09:55:25;;;;;;;17.75;3.97;;;;;;;23.14;53.83;95182.50;5041767;28;20123;-72
2021/11/05 09:57:52;;;;;;;7.18;3.42;;;;;;;22.99;51.78;95181.72;5042119;28;20041;-72
2021/11/05 10:00:23;;;;;;;8.18;4.82;;;;;;;23.08;52.17;95190.59;5042276;28;20503;-72
2021/11/05 10:02:51;;;;;;;6.78;3.17;;;;;;;23.07;52.57;95193.56;5041810;28;20514;-72
2021/11/05 10:05:19;;;;;;;6.25;3.05;;;;;;;23.27;51.47;95197.59;5041774;28;20130;-72
2021/11/05 10:07:50;;;;;;;7.85;4.45;;;;;;;23.45;50.79;95193.19;5043066;28;20048;-72
2021/11/05 10:10:35;;;;;;;9.00;4.20;;;;;;;23.46;50.89;95184.91;5041699;28;20490;-70
2021/11/05 10:13:05;;;;;;;6.05;2.00;;;;;;;23.39;49.22;95187.22;5039696;28;20045;-69
2021/11/05 10:15:40;;;;;;;6.57;3.22;;;;;;;23.26;48.59;95185.38;5042882;28;20045;-69
2021/11/05 10:18:15;;;;;;;4.85;2.60;;;;;;;23.33;50.76;95180.44;5043091;28;20049;-69
2021/11/05 10:20:44;;;;;;;5.70;2.70;;;;;;;23.38;50.32;95167.03;5041983;28;20041;-69
2021/11/05 10:23:12;;;;;;;8.57;4.20;;;;;;;23.48;49.41;95176.63;5041813;28;20849;-69
2021/11/05 10:25:40;;;;;;;5.93;3.47;;;;;;;23.73;49.39;95177.81;5040549;28;20037;-69
2021/11/05 10:28:25;;;;;;;4.18;2.45;;;;;;;23.79;47.78;95171.31;5040148;28;20057;-69
2021/11/05 10:30:56;;;;;;;4.10;2.20;;;;;;;23.50;48.59;95173.66;5040212;28;20048;-69
2021/11/05 10:33:29;;;;;;;5.43;2.22;;;;;;;23.62;48.49;95149.94;5041528;28;20048;-69
2021/11/05 10:36:00;;;;;;;7.55;2.72;;;;;;;23.91;49.23;95146.03;5040871;28;20107;-69
2021/11/05 10:38:30;;;;;;;7.13;2.80;;;;;;;23.99;48.21;95145.28;5041100;28;20103;-69
2021/11/05 10:41:00;;;;;;;8.20;2.75;;;;;;;24.27;47.88;95139.69;5022055;28;20041;-69
2021/11/05 10:43:38;;;;;;;5.25;2.70;;;;;;;24.53;46.06;95161.84;5040188;28;20041;-69
2021/11/05 10:46:08;;;;;;;7.95;2.83;;;;;;;24.64;47.13;95166.88;5040001;28;20052;-69
2021/11/05 10:48:40;;;;;;;3.47;2.03;;;;;;;24.78;46.07;95173.63;5042882;28;20041;-69
2021/11/05 10:51:09;;;;;;;6.15;2.63;;;;;;;24.22;46.08;95152.06;5042319;28;20040;-69
2021/11/05 10:53:41;;;;;;;11.50;2.65;;;;;;;24.41;46.63;95145.69;5042075;28;20045;-69
2021/11/05 10:56:13;;;;;;;3.55;1.75;;;;;;;24.67;45.82;95152.94;5039225;28;20052;-69
2021/11/05 10:58:43;;;;;;;3.92;2.72;;;;;;;25.14;44.10;95155.75;5044692;28;20519;-69
2021/11/05 11:01:14;;;;;;;8.45;2.85;;;;;;;25.09;44.64;95147.91;5045294;28;20111;-69
2021/11/05 11:03:51;;;;;;;10.93;2.05;;;;;;;24.96;44.16;95166.41;5044987;28;20518;-68
2021/11/05 11:06:28;;;;;;;3.95;2.50;;;;;;;24.84;45.97;95154.84;5043709;28;20052;-69
2021/11/05 11:09:03;;;;;;;6.22;3.10;;;;;;;25.02;44.63;95150.28;5046048;28;20052;-69
2021/11/05 11:11:50;;;;;;;4.22;2.58;;;;;;;24.89;44.99;95142.13;5045592;28;20643;-69
2021/11/05 11:14:20;;;;;;;4.65;2.10;;;;;;;25.16;45.32;95132.22;5045245;28;20107;-69
2021/11/05 11:17:00;;;;;;;8.15;2.75;;;;;;;25.28;45.61;95135.06;5043221;28;20049;-68
2021/11/05 11:19:33;;;;;;;4.97;2.70;;;;;;;25.36;44.56;95134.25;5046122;28;20569;-68
2021/11/05 11:22:10;;;;;;;7.13;2.72;;;;;;;25.10;44.99;95130.81;5045487;28;20041;-69
2021/11/05 11:24:39;;;;;;;4.90;2.58;;;;;;;25.27;44.30;95130.81;5045287;28;20044;-69
2021/11/05 11:27:10;;;;;;;3.70;2.17;;;;;;;25.10;46.00;95120.16;5042914;28;20041;-69